Weather History for KVSH - July, 2013

Change the Weather History Date:

Wednesday, July 31, 2013

  Actual Average (KMAI) Record (KMAI)
Temperature  
Mean Temperature 88 °F 82 °F  
Max Temperature 93 °F 91 °F 105 °F (2010)
Min Temperature 82 °F 73 °F 64 °F (2014)
Degree Days  
Heating Degree Days 0    
Month to date heating degree days  
Since 1 June heating degree days  
Since 1 July heating degree days  
Cooling Degree Days 22    
Month to date cooling degree days  
Year to date cooling degree days  
Since 1 June cooling degree days  
Growing Degree Days 38 (Base 50)    
Moisture  
Dew Point 73 °F    
Average Humidity 65    
Maximum Humidity 74    
Minimum Humidity 52    
Precipitation  
Precipitation 0.08 in 0.15 in 1.62 in (1997)
Month to date precipitation 5.11  
Year to date precipitation 32.90  
Sea Level Pressure  
Sea Level Pressure 30.06 in    
Wind  
Wind Speed 3 mph (SW)    
Max Wind Speed 10 mph    
Max Gust Speed -    
Visibility 10 miles    
Events      
T = Trace of Precipitation, MM = Missing Value Source: NWS Daily Summary

Daily Weather History Graph

Daily Weather History Graph

Search for Another Location

Airport or City:

Trip Planner

Search our weather history database for the weather conditions in past years. The results will help you decide how hot, cold, wet, or windy it might be!

Date:

Astronomy

Jul. 31, 2013 Rise Set
Actual Time 5:59 AM CDT 7:37 PM CDT
Civil Twilight 5:33 AM CDT 8:03 PM CDT
Nautical Twilight 5:01 AM CDT 8:35 PM CDT
Astronomical Twilight 4:28 AM CDT 9:08 PM CDT
Moon 12:54 AM CDT (7/31) 2:52 PM CDT (7/31)
Length of Visible Light 14h 30m
Length of Day
13h 38m
Waning Crescent, 31% of the Moon is Illuminated
Jul 31
Waning Crescent
Aug 6
New
Aug 14
First Quarter
Aug 20
Full
Aug 28
Last Quarter

Hourly Weather History & Observations

Time (CDT) Temp. Heat Index Dew Point Humidity Pressure Visibility Wind Dir Wind Speed Gust Speed Precip Events Conditions
12:15 AM 84.2 °F 90.9 °F 73.4 °F 70% 30.09 in 10.0 mi South 3.5 mph - N/A   Clear
12:35 AM 84.2 °F 90.9 °F 73.4 °F 70% 30.09 in 10.0 mi South 3.5 mph - N/A   Clear
12:55 AM 82.4 °F 88.2 °F 73.4 °F 74% 30.09 in 10.0 mi Calm Calm - N/A   Clear
1:15 AM 84.2 °F 90.9 °F 73.4 °F 70% 30.09 in 10.0 mi SSW 3.5 mph - N/A   Clear
1:55 AM 82.4 °F 88.2 °F 73.4 °F 74% 30.09 in 10.0 mi SW 4.6 mph - N/A   Clear
2:15 AM 82.4 °F 88.2 °F 73.4 °F 74% 30.09 in 10.0 mi SSW 3.5 mph - N/A   Clear
2:35 AM 82.4 °F 88.2 °F 73.4 °F 74% 30.09 in 10.0 mi SSW 4.6 mph - N/A   Clear
2:55 AM 82.4 °F 88.2 °F 73.4 °F 74% 30.08 in 10.0 mi SSW 3.5 mph - N/A   Clear
3:15 AM 82.4 °F 88.2 °F 73.4 °F 74% 30.08 in 10.0 mi Calm Calm - N/A   Clear
3:35 AM 82.4 °F 88.2 °F 73.4 °F 74% 30.08 in 10.0 mi SW 4.6 mph - N/A   Clear
3:55 AM 82.4 °F 87.2 °F 71.6 °F 70% 30.08 in 10.0 mi SSW 4.6 mph - N/A   Clear
4:15 AM 82.4 °F 87.2 °F 71.6 °F 70% 30.08 in 10.0 mi SSW 3.5 mph - N/A   Clear
4:35 AM 82.4 °F 87.2 °F 71.6 °F 70% 30.08 in 10.0 mi Calm Calm - N/A   Clear
4:55 AM 82.4 °F 87.2 °F 71.6 °F 70% 30.08 in 10.0 mi Calm Calm - N/A   Clear
5:15 AM 82.4 °F 87.2 °F 71.6 °F 70% 30.09 in 10.0 mi Calm Calm - N/A   Clear
5:35 AM 82.4 °F 87.2 °F 71.6 °F 70% 30.09 in 10.0 mi Calm Calm - N/A   Clear
5:55 AM 82.4 °F 87.2 °F 71.6 °F 70% 30.09 in 10.0 mi SW 3.5 mph - N/A   Clear
6:15 AM 82.4 °F 87.2 °F 71.6 °F 70% 30.09 in 10.0 mi Calm Calm - N/A   Clear
6:35 AM 82.4 °F 87.2 °F 71.6 °F 70% 30.09 in 10.0 mi SW 3.5 mph - N/A   Clear
6:55 AM 82.4 °F 87.2 °F 71.6 °F 70% 30.10 in 10.0 mi Calm Calm - N/A   Clear
7:15 AM 82.4 °F 87.2 °F 71.6 °F 70% 30.11 in 10.0 mi Calm Calm - N/A   Clear
7:35 AM 82.4 °F 88.2 °F 73.4 °F 74% 30.11 in 10.0 mi Calm Calm - N/A   Clear
7:55 AM 84.2 °F 90.9 °F 73.4 °F 70% 30.12 in 10.0 mi SW 3.5 mph - N/A   Partly Cloudy
8:15 AM 84.2 °F 90.9 °F 73.4 °F 70% 30.11 in 10.0 mi West 4.6 mph - N/A   Clear
8:35 AM 84.2 °F 90.9 °F 73.4 °F 70% 30.11 in 10.0 mi West 5.8 mph - N/A   Clear
8:55 AM 87.8 °F 95.6 °F 73.4 °F 62% 30.12 in 10.0 mi West 3.5 mph - N/A   Clear
9:15 AM 87.8 °F 95.6 °F 73.4 °F 62% 30.12 in 9.0 mi WSW 6.9 mph - N/A   Partly Cloudy
9:35 AM 87.8 °F 95.6 °F 73.4 °F 62% 30.12 in 10.0 mi West 5.8 mph - N/A   Mostly Cloudy
9:55 AM 87.8 °F 95.6 °F 73.4 °F 62% 30.12 in 10.0 mi WSW 3.5 mph - N/A   Mostly Cloudy
10:15 AM 87.8 °F 95.6 °F 73.4 °F 62% 30.12 in 10.0 mi West 5.8 mph - N/A   Mostly Cloudy
10:35 AM 87.8 °F 95.6 °F 73.4 °F 62% 30.12 in 10.0 mi Calm Calm - N/A   Scattered Clouds
10:55 AM 87.8 °F 95.6 °F 73.4 °F 62% 30.12 in 10.0 mi NW 6.9 mph - N/A   Mostly Cloudy
11:15 AM 86.0 °F 93.4 °F 73.4 °F 66% 30.11 in 10.0 mi North 6.9 mph - N/A   Mostly Cloudy
11:35 AM 87.8 °F 95.6 °F 73.4 °F 62% 30.11 in 10.0 mi Calm Calm - N/A   Scattered Clouds
11:55 AM 87.8 °F 95.6 °F 73.4 °F 62% 30.11 in 10.0 mi NW 3.5 mph - N/A   Mostly Cloudy
12:15 PM 87.8 °F 95.6 °F 73.4 °F 62% 30.09 in 10.0 mi NNW 3.5 mph - N/A   Mostly Cloudy
12:35 PM 89.6 °F 98.2 °F 73.4 °F 59% 30.09 in 10.0 mi North 4.6 mph - N/A   Mostly Cloudy
12:55 PM 89.6 °F 98.2 °F 73.4 °F 59% 30.08 in 10.0 mi North 4.6 mph - N/A   Mostly Cloudy
1:15 PM 89.6 °F 98.2 °F 73.4 °F 59% 30.07 in 10.0 mi WNW 8.1 mph - N/A   Mostly Cloudy
1:35 PM 91.4 °F 100.1 °F 73.4 °F 55% 30.07 in 10.0 mi Calm Calm - N/A   Scattered Clouds
1:55 PM 91.4 °F 102.5 °F 75.2 °F 59% 30.06 in 10.0 mi NNW 3.5 mph - N/A   Partly Cloudy
2:15 PM 91.4 °F 100.1 °F 73.4 °F 55% 30.05 in 10.0 mi NW 3.5 mph - N/A   Partly Cloudy
2:35 PM 93.2 °F 102.4 °F 73.4 °F 52% 30.05 in 10.0 mi North 6.9 mph - N/A   Mostly Cloudy
2:55 PM 91.4 °F 100.1 °F 73.4 °F 55% 30.04 in 10.0 mi NW 6.9 mph - N/A   Partly Cloudy
3:15 PM 91.4 °F 100.1 °F 73.4 °F 55% 30.04 in 10.0 mi WSW 3.5 mph - N/A   Clear
3:35 PM 93.2 °F 102.4 °F 73.4 °F 52% 30.03 in 10.0 mi Calm Calm - N/A   Clear
3:55 PM 93.2 °F 102.4 °F 73.4 °F 52% 30.03 in 10.0 mi Calm Calm - N/A   Scattered Clouds
4:15 PM 93.2 °F 102.4 °F 73.4 °F 52% 30.02 in 10.0 mi Calm Calm - N/A   Overcast
4:35 PM 91.4 °F 102.5 °F 75.2 °F 59% 30.02 in 10.0 mi SSE 8.1 mph - N/A   Overcast
4:55 PM 87.8 °F 92.6 °F 69.8 °F 55% 30.02 in 10.0 mi SSE 10.4 mph - N/A   Overcast
5:15 PM 84.2 °F 88.4 °F 69.8 °F 62% 30.01 in 7.0 mi South 4.6 mph - 0.04 in   Overcast
5:35 PM 84.2 °F 92.3 °F 75.2 °F 74% 30.01 in 10.0 mi South 5.8 mph - 0.08 in   Mostly Cloudy
5:55 PM 87.8 °F 99.7 °F 77.0 °F 70% 30.00 in 10.0 mi South 6.9 mph - 0.08 in   Clear
6:15 PM 89.6 °F 99.8 °F 75.2 °F 62% 30.00 in 10.0 mi SSW 6.9 mph - N/A   Clear
6:35 PM 89.6 °F 99.8 °F 75.2 °F 62% 30.00 in 10.0 mi SSW 5.8 mph - N/A   Clear
6:55 PM 89.6 °F 98.2 °F 73.4 °F 59% 30.00 in 10.0 mi SSW 5.8 mph - N/A   Clear
7:15 PM 87.8 °F 95.6 °F 73.4 °F 62% 30.01 in 10.0 mi SSW 6.9 mph - N/A   Clear
7:35 PM 87.8 °F 93.8 °F 71.6 °F 58% 30.01 in 10.0 mi SSW 5.8 mph - N/A   Clear
7:55 PM 87.8 °F 95.6 °F 73.4 °F 62% 30.01 in 10.0 mi SSW 5.8 mph - N/A   Clear
8:15 PM 87.8 °F 95.6 °F 73.4 °F 62% 30.01 in 10.0 mi SSW 4.6 mph - N/A   Clear
8:35 PM 86.0 °F 93.4 °F 73.4 °F 66% 30.01 in 10.0 mi SSW 5.8 mph - N/A   Clear
8:55 PM 86.0 °F 93.4 °F 73.4 °F 66% 30.01 in 10.0 mi SSW 4.6 mph - N/A   Clear
9:15 PM 86.0 °F 93.4 °F 73.4 °F 66% 30.02 in 10.0 mi SSW 4.6 mph - N/A   Clear
9:35 PM 84.2 °F 90.9 °F 73.4 °F 70% 30.02 in 10.0 mi SSW 3.5 mph - N/A   Clear
9:55 PM 86.0 °F 95.1 °F 75.2 °F 70% 30.03 in 10.0 mi SSW 3.5 mph - N/A   Clear
10:15 PM 86.0 °F 95.1 °F 75.2 °F 70% 30.02 in 10.0 mi South 4.6 mph - N/A   Clear
10:35 PM 86.0 °F 95.1 °F 75.2 °F 70% 30.03 in 10.0 mi SSW 4.6 mph - N/A   Clear
10:55 PM 86.0 °F 95.1 °F 75.2 °F 70% 30.03 in 10.0 mi South 4.6 mph - N/A   Clear
11:15 PM 84.2 °F 92.3 °F 75.2 °F 74% 30.03 in 10.0 mi SSW 3.5 mph - N/A   Clear
11:35 PM 84.2 °F 90.9 °F 73.4 °F 70% 30.03 in 10.0 mi SW 3.5 mph - N/A   Clear
11:55 PM 84.2 °F 90.9 °F 73.4 °F 70% 30.03 in 10.0 mi SW 3.5 mph - N/A   Clear